sensor_id;sensor_type;location;lat;lon;timestamp;P1;durP1;ratioP1;P2;durP2;ratioP2
82513;SDS011;72858;52.130;5.584;2023-12-04T00:01:11;39.67;;;22.57;;
82513;SDS011;72858;52.130;5.584;2023-12-04T00:03:36;40.83;;;21.80;;
82513;SDS011;72858;52.130;5.584;2023-12-04T00:06:02;41.90;;;21.60;;
82513;SDS011;72858;52.130;5.584;2023-12-04T00:08:27;41.38;;;22.45;;
82513;SDS011;72858;52.130;5.584;2023-12-04T00:10:52;42.27;;;21.67;;
82513;SDS011;72858;52.130;5.584;2023-12-04T00:13:19;42.25;;;22.02;;
82513;SDS011;72858;52.130;5.584;2023-12-04T00:15:44;42.93;;;22.73;;
82513;SDS011;72858;52.130;5.584;2023-12-04T00:18:09;37.77;;;20.87;;
82513;SDS011;72858;52.130;5.584;2023-12-04T00:20:37;38.50;;;21.17;;
82513;SDS011;72858;52.130;5.584;2023-12-04T00:23:03;40.45;;;22.27;;
82513;SDS011;72858;52.130;5.584;2023-12-04T00:25:28;43.20;;;22.53;;
82513;SDS011;72858;52.130;5.584;2023-12-04T00:27:53;43.08;;;23.00;;
82513;SDS011;72858;52.130;5.584;2023-12-04T00:30:18;43.15;;;22.08;;
82513;SDS011;72858;52.130;5.584;2023-12-04T00:32:43;43.17;;;23.43;;
82513;SDS011;72858;52.130;5.584;2023-12-04T00:35:09;45.28;;;23.10;;
82513;SDS011;72858;52.130;5.584;2023-12-04T00:37:34;41.40;;;23.05;;
82513;SDS011;72858;52.130;5.584;2023-12-04T00:40:03;46.28;;;23.83;;
82513;SDS011;72858;52.130;5.584;2023-12-04T00:42:29;43.17;;;24.23;;
82513;SDS011;72858;52.130;5.584;2023-12-04T00:44:54;43.10;;;23.73;;
82513;SDS011;72858;52.130;5.584;2023-12-04T00:47:19;43.30;;;23.87;;
82513;SDS011;72858;52.130;5.584;2023-12-04T00:49:44;44.38;;;23.08;;
82513;SDS011;72858;52.130;5.584;2023-12-04T00:52:09;47.33;;;25.17;;
82513;SDS011;72858;52.130;5.584;2023-12-04T00:54:35;45.65;;;24.88;;
82513;SDS011;72858;52.130;5.584;2023-12-04T00:57:00;46.77;;;24.37;;
82513;SDS011;72858;52.130;5.584;2023-12-04T00:59:25;43.17;;;23.90;;
82513;SDS011;72858;52.130;5.584;2023-12-04T01:01:50;46.10;;;24.80;;
82513;SDS011;72858;52.130;5.584;2023-12-04T01:04:15;48.63;;;24.87;;
82513;SDS011;72858;52.130;5.584;2023-12-04T01:06:41;48.33;;;25.53;;
82513;SDS011;72858;52.130;5.584;2023-12-04T01:09:06;46.77;;;23.87;;
82513;SDS011;72858;52.130;5.584;2023-12-04T01:11:31;47.40;;;24.17;;
82513;SDS011;72858;52.130;5.584;2023-12-04T01:13:56;46.23;;;25.50;;
82513;SDS011;72858;52.130;5.584;2023-12-04T01:16:21;46.20;;;24.93;;
82513;SDS011;72858;52.130;5.584;2023-12-04T01:18:46;48.80;;;25.85;;
82513;SDS011;72858;52.130;5.584;2023-12-04T01:21:12;46.70;;;24.83;;
82513;SDS011;72858;52.130;5.584;2023-12-04T01:23:37;44.03;;;23.33;;
82513;SDS011;72858;52.130;5.584;2023-12-04T01:26:03;48.77;;;24.43;;
82513;SDS011;72858;52.130;5.584;2023-12-04T01:28:28;47.55;;;24.35;;
82513;SDS011;72858;52.130;5.584;2023-12-04T01:30:53;50.10;;;26.23;;
82513;SDS011;72858;52.130;5.584;2023-12-04T01:33:18;48.43;;;25.10;;
82513;SDS011;72858;52.130;5.584;2023-12-04T01:35:44;49.83;;;24.98;;
82513;SDS011;72858;52.130;5.584;2023-12-04T01:38:09;46.00;;;24.90;;
82513;SDS011;72858;52.130;5.584;2023-12-04T01:40:34;43.50;;;23.73;;
82513;SDS011;72858;52.130;5.584;2023-12-04T01:42:59;45.75;;;23.98;;
82513;SDS011;72858;52.130;5.584;2023-12-04T01:45:25;50.53;;;24.27;;
82513;SDS011;72858;52.130;5.584;2023-12-04T01:47:50;46.60;;;24.92;;
82513;SDS011;72858;52.130;5.584;2023-12-04T01:50:15;48.92;;;25.10;;
82513;SDS011;72858;52.130;5.584;2023-12-04T01:52:40;46.83;;;23.88;;
82513;SDS011;72858;52.130;5.584;2023-12-04T01:55:06;48.75;;;24.42;;
82513;SDS011;72858;52.130;5.584;2023-12-04T01:57:32;46.75;;;24.73;;
82513;SDS011;72858;52.130;5.584;2023-12-04T01:59:58;47.63;;;24.63;;
82513;SDS011;72858;52.130;5.584;2023-12-04T02:02:23;46.83;;;24.20;;
82513;SDS011;72858;52.130;5.584;2023-12-04T02:04:48;45.63;;;23.58;;
82513;SDS011;72858;52.130;5.584;2023-12-04T02:07:14;41.53;;;23.40;;
82513;SDS011;72858;52.130;5.584;2023-12-04T02:09:39;46.23;;;23.47;;
82513;SDS011;72858;52.130;5.584;2023-12-04T02:12:04;41.93;;;23.00;;
82513;SDS011;72858;52.130;5.584;2023-12-04T02:14:30;45.47;;;24.05;;
82513;SDS011;72858;52.130;5.584;2023-12-04T02:16:55;40.60;;;22.77;;
82513;SDS011;72858;52.130;5.584;2023-12-04T02:19:21;39.55;;;21.23;;
82513;SDS011;72858;52.130;5.584;2023-12-04T02:21:46;45.07;;;23.57;;
82513;SDS011;72858;52.130;5.584;2023-12-04T02:24:11;42.05;;;21.90;;
82513;SDS011;72858;52.130;5.584;2023-12-04T02:26:40;44.08;;;23.15;;
82513;SDS011;72858;52.130;5.584;2023-12-04T02:29:07;38.38;;;21.90;;
82513;SDS011;72858;52.130;5.584;2023-12-04T02:31:36;40.85;;;22.00;;
82513;SDS011;72858;52.130;5.584;2023-12-04T02:34:02;38.03;;;21.50;;
82513;SDS011;72858;52.130;5.584;2023-12-04T02:36:29;40.03;;;21.52;;
82513;SDS011;72858;52.130;5.584;2023-12-04T02:38:55;35.65;;;20.88;;
82513;SDS011;72858;52.130;5.584;2023-12-04T02:41:21;43.83;;;22.88;;
82513;SDS011;72858;52.130;5.584;2023-12-04T02:43:46;37.40;;;21.25;;
82513;SDS011;72858;52.130;5.584;2023-12-04T02:46:11;40.85;;;20.73;;
82513;SDS011;72858;52.130;5.584;2023-12-04T02:48:36;37.33;;;21.53;;
82513;SDS011;72858;52.130;5.584;2023-12-04T02:51:02;37.83;;;20.65;;
82513;SDS011;72858;52.130;5.584;2023-12-04T02:53:28;38.35;;;21.10;;
82513;SDS011;72858;52.130;5.584;2023-12-04T02:55:53;37.03;;;21.00;;
82513;SDS011;72858;52.130;5.584;2023-12-04T02:58:18;36.72;;;21.33;;
82513;SDS011;72858;52.130;5.584;2023-12-04T03:00:44;42.95;;;21.15;;
82513;SDS011;72858;52.130;5.584;2023-12-04T03:03:09;36.58;;;20.30;;
82513;SDS011;72858;52.130;5.584;2023-12-04T03:05:34;34.75;;;19.60;;
82513;SDS011;72858;52.130;5.584;2023-12-04T03:07:59;35.27;;;20.07;;
82513;SDS011;72858;52.130;5.584;2023-12-04T03:10:25;38.43;;;20.37;;
82513;SDS011;72858;52.130;5.584;2023-12-04T03:12:50;34.77;;;19.80;;
82513;SDS011;72858;52.130;5.584;2023-12-04T03:15:15;33.70;;;19.83;;
82513;SDS011;72858;52.130;5.584;2023-12-04T03:17:40;37.25;;;19.38;;
82513;SDS011;72858;52.130;5.584;2023-12-04T03:20:05;39.07;;;20.67;;
82513;SDS011;72858;52.130;5.584;2023-12-04T03:22:33;35.97;;;18.85;;
82513;SDS011;72858;52.130;5.584;2023-12-04T03:24:58;36.85;;;21.23;;
82513;SDS011;72858;52.130;5.584;2023-12-04T03:27:23;36.72;;;20.25;;
82513;SDS011;72858;52.130;5.584;2023-12-04T03:29:49;33.63;;;18.90;;
82513;SDS011;72858;52.130;5.584;2023-12-04T03:32:14;31.63;;;18.63;;
82513;SDS011;72858;52.130;5.584;2023-12-04T03:34:39;29.93;;;18.00;;
82513;SDS011;72858;52.130;5.584;2023-12-04T03:37:04;33.60;;;19.10;;
82513;SDS011;72858;52.130;5.584;2023-12-04T03:39:29;32.60;;;18.33;;
82513;SDS011;72858;52.130;5.584;2023-12-04T03:41:55;28.10;;;17.53;;
82513;SDS011;72858;52.130;5.584;2023-12-04T03:44:20;30.70;;;17.67;;
82513;SDS011;72858;52.130;5.584;2023-12-04T03:46:45;32.53;;;18.80;;
82513;SDS011;72858;52.130;5.584;2023-12-04T03:49:10;32.30;;;18.20;;
82513;SDS011;72858;52.130;5.584;2023-12-04T03:51:35;29.25;;;17.63;;
82513;SDS011;72858;52.130;5.584;2023-12-04T03:54:00;29.60;;;17.93;;
82513;SDS011;72858;52.130;5.584;2023-12-04T03:56:26;29.70;;;17.30;;
82513;SDS011;72858;52.130;5.584;2023-12-04T03:58:51;27.20;;;16.90;;
82513;SDS011;72858;52.130;5.584;2023-12-04T04:01:16;28.87;;;16.67;;
82513;SDS011;72858;52.130;5.584;2023-12-04T04:03:41;26.50;;;16.23;;
82513;SDS011;72858;52.130;5.584;2023-12-04T04:06:07;27.17;;;16.10;;
82513;SDS011;72858;52.130;5.584;2023-12-04T04:08:33;27.88;;;16.83;;
82513;SDS011;72858;52.130;5.584;2023-12-04T04:10:58;26.85;;;15.85;;
82513;SDS011;72858;52.130;5.584;2023-12-04T04:13:23;27.77;;;16.47;;
82513;SDS011;72858;52.130;5.584;2023-12-04T04:15:48;25.50;;;15.87;;
82513;SDS011;72858;52.130;5.584;2023-12-04T04:18:13;27.35;;;17.02;;
82513;SDS011;72858;52.130;5.584;2023-12-04T04:20:39;31.95;;;17.52;;
82513;SDS011;72858;52.130;5.584;2023-12-04T04:23:04;26.67;;;16.23;;
82513;SDS011;72858;52.130;5.584;2023-12-04T04:25:29;27.63;;;16.50;;
82513;SDS011;72858;52.130;5.584;2023-12-04T04:27:54;26.27;;;15.73;;
82513;SDS011;72858;52.130;5.584;2023-12-04T04:30:19;24.57;;;16.33;;
82513;SDS011;72858;52.130;5.584;2023-12-04T04:32:44;27.10;;;17.10;;
82513;SDS011;72858;52.130;5.584;2023-12-04T04:35:10;26.75;;;15.65;;
82513;SDS011;72858;52.130;5.584;2023-12-04T04:37:35;27.27;;;16.20;;
82513;SDS011;72858;52.130;5.584;2023-12-04T04:40:00;26.42;;;16.10;;
82513;SDS011;72858;52.130;5.584;2023-12-04T04:42:25;26.20;;;16.58;;
82513;SDS011;72858;52.130;5.584;2023-12-04T04:44:51;30.73;;;16.90;;
82513;SDS011;72858;52.130;5.584;2023-12-04T04:47:16;28.17;;;16.80;;
82513;SDS011;72858;52.130;5.584;2023-12-04T04:49:41;23.90;;;15.80;;
82513;SDS011;72858;52.130;5.584;2023-12-04T04:52:07;26.85;;;16.65;;
82513;SDS011;72858;52.130;5.584;2023-12-04T04:54:32;29.05;;;16.98;;
82513;SDS011;72858;52.130;5.584;2023-12-04T04:56:57;28.40;;;17.08;;
82513;SDS011;72858;52.130;5.584;2023-12-04T04:59:22;26.17;;;15.80;;
82513;SDS011;72858;52.130;5.584;2023-12-04T05:01:48;24.58;;;15.45;;
82513;SDS011;72858;52.130;5.584;2023-12-04T05:04:13;25.45;;;15.93;;
82513;SDS011;72858;52.130;5.584;2023-12-04T05:06:38;24.90;;;16.07;;
82513;SDS011;72858;52.130;5.584;2023-12-04T05:09:03;25.35;;;15.20;;
82513;SDS011;72858;52.130;5.584;2023-12-04T05:11:29;25.75;;;16.08;;
82513;SDS011;72858;52.130;5.584;2023-12-04T05:13:54;24.50;;;15.90;;
82513;SDS011;72858;52.130;5.584;2023-12-04T05:16:20;24.43;;;15.23;;
82513;SDS011;72858;52.130;5.584;2023-12-04T05:18:45;24.77;;;15.73;;
82513;SDS011;72858;52.130;5.584;2023-12-04T05:21:10;23.60;;;15.05;;
82513;SDS011;72858;52.130;5.584;2023-12-04T05:23:36;24.40;;;15.82;;
82513;SDS011;72858;52.130;5.584;2023-12-04T05:26:01;24.60;;;15.48;;
82513;SDS011;72858;52.130;5.584;2023-12-04T05:28:26;22.80;;;15.32;;
82513;SDS011;72858;52.130;5.584;2023-12-04T05:30:52;23.87;;;15.23;;
82513;SDS011;72858;52.130;5.584;2023-12-04T05:33:17;23.45;;;14.88;;
82513;SDS011;72858;52.130;5.584;2023-12-04T05:35:42;24.95;;;15.05;;
82513;SDS011;72858;52.130;5.584;2023-12-04T05:38:07;23.25;;;14.73;;
82513;SDS011;72858;52.130;5.584;2023-12-04T05:40:33;23.15;;;15.00;;
82513;SDS011;72858;52.130;5.584;2023-12-04T05:42:58;20.63;;;14.02;;
82513;SDS011;72858;52.130;5.584;2023-12-04T05:45:23;22.00;;;14.13;;
82513;SDS011;72858;52.130;5.584;2023-12-04T05:47:49;23.13;;;14.37;;
82513;SDS011;72858;52.130;5.584;2023-12-04T05:50:14;22.37;;;14.40;;
82513;SDS011;72858;52.130;5.584;2023-12-04T05:52:39;23.60;;;15.20;;
82513;SDS011;72858;52.130;5.584;2023-12-04T05:55:04;21.90;;;14.32;;
82513;SDS011;72858;52.130;5.584;2023-12-04T05:57:30;20.27;;;14.30;;
82513;SDS011;72858;52.130;5.584;2023-12-04T05:59:55;21.63;;;14.13;;
82513;SDS011;72858;52.130;5.584;2023-12-04T06:02:20;21.10;;;14.98;;
82513;SDS011;72858;52.130;5.584;2023-12-04T06:04:45;23.33;;;14.45;;
82513;SDS011;72858;52.130;5.584;2023-12-04T06:07:11;20.17;;;14.77;;
82513;SDS011;72858;52.130;5.584;2023-12-04T06:09:36;21.42;;;14.05;;
82513;SDS011;72858;52.130;5.584;2023-12-04T06:12:04;21.15;;;13.48;;
82513;SDS011;72858;52.130;5.584;2023-12-04T06:14:33;21.25;;;13.60;;
82513;SDS011;72858;52.130;5.584;2023-12-04T06:16:58;22.23;;;14.65;;
82513;SDS011;72858;52.130;5.584;2023-12-04T06:19:23;21.87;;;14.53;;
82513;SDS011;72858;52.130;5.584;2023-12-04T06:21:49;21.53;;;13.93;;
82513;SDS011;72858;52.130;5.584;2023-12-04T06:24:14;20.80;;;14.30;;
82513;SDS011;72858;52.130;5.584;2023-12-04T06:26:41;21.20;;;13.50;;
82513;SDS011;72858;52.130;5.584;2023-12-04T06:29:07;25.45;;;15.13;;
82513;SDS011;72858;52.130;5.584;2023-12-04T06:31:32;19.63;;;14.13;;
82513;SDS011;72858;52.130;5.584;2023-12-04T06:33:58;20.40;;;13.43;;
82513;SDS011;72858;52.130;5.584;2023-12-04T06:36:23;20.00;;;13.50;;
82513;SDS011;72858;52.130;5.584;2023-12-04T06:38:49;19.45;;;13.48;;
82513;SDS011;72858;52.130;5.584;2023-12-04T06:41:15;22.08;;;12.95;;
82513;SDS011;72858;52.130;5.584;2023-12-04T06:43:40;19.08;;;12.90;;
82513;SDS011;72858;52.130;5.584;2023-12-04T06:46:06;19.88;;;13.70;;
82513;SDS011;72858;52.130;5.584;2023-12-04T06:48:31;22.35;;;14.05;;
82513;SDS011;72858;52.130;5.584;2023-12-04T06:50:57;17.95;;;13.23;;
82513;SDS011;72858;52.130;5.584;2023-12-04T06:53:22;19.27;;;13.77;;
82513;SDS011;72858;52.130;5.584;2023-12-04T06:55:47;20.13;;;13.87;;
82513;SDS011;72858;52.130;5.584;2023-12-04T06:58:12;20.23;;;13.03;;
82513;SDS011;72858;52.130;5.584;2023-12-04T07:00:38;21.00;;;13.50;;
82513;SDS011;72858;52.130;5.584;2023-12-04T07:03:03;19.17;;;12.52;;
82513;SDS011;72858;52.130;5.584;2023-12-04T07:05:28;19.53;;;13.27;;
82513;SDS011;72858;52.130;5.584;2023-12-04T07:07:53;21.63;;;13.43;;
82513;SDS011;72858;52.130;5.584;2023-12-04T07:10:19;16.88;;;12.40;;
82513;SDS011;72858;52.130;5.584;2023-12-04T07:12:44;17.10;;;12.13;;
82513;SDS011;72858;52.130;5.584;2023-12-04T07:15:10;15.85;;;12.15;;
82513;SDS011;72858;52.130;5.584;2023-12-04T07:17:36;15.70;;;12.20;;
82513;SDS011;72858;52.130;5.584;2023-12-04T07:20:01;17.23;;;12.48;;
82513;SDS011;72858;52.130;5.584;2023-12-04T07:22:26;16.80;;;11.73;;
82513;SDS011;72858;52.130;5.584;2023-12-04T07:24:51;17.40;;;12.60;;
82513;SDS011;72858;52.130;5.584;2023-12-04T07:27:16;15.53;;;11.53;;
82513;SDS011;72858;52.130;5.584;2023-12-04T07:29:42;18.93;;;12.73;;
82513;SDS011;72858;52.130;5.584;2023-12-04T07:32:07;17.70;;;11.73;;
82513;SDS011;72858;52.130;5.584;2023-12-04T07:34:32;15.40;;;11.57;;
82513;SDS011;72858;52.130;5.584;2023-12-04T07:36:57;16.67;;;12.10;;
82513;SDS011;72858;52.130;5.584;2023-12-04T07:39:22;14.60;;;10.87;;
82513;SDS011;72858;52.130;5.584;2023-12-04T07:41:47;16.67;;;11.23;;
82513;SDS011;72858;52.130;5.584;2023-12-04T07:44:13;15.73;;;11.00;;
82513;SDS011;72858;52.130;5.584;2023-12-04T07:46:38;16.53;;;11.60;;
82513;SDS011;72858;52.130;5.584;2023-12-04T07:49:03;16.30;;;11.60;;
82513;SDS011;72858;52.130;5.584;2023-12-04T07:51:28;15.40;;;11.60;;
82513;SDS011;72858;52.130;5.584;2023-12-04T07:53:53;18.90;;;13.07;;
82513;SDS011;72858;52.130;5.584;2023-12-04T07:56:19;16.58;;;10.57;;
82513;SDS011;72858;52.130;5.584;2023-12-04T07:58:44;16.58;;;11.20;;
82513;SDS011;72858;52.130;5.584;2023-12-04T08:01:09;17.30;;;11.60;;
82513;SDS011;72858;52.130;5.584;2023-12-04T08:03:34;15.27;;;11.13;;
82513;SDS011;72858;52.130;5.584;2023-12-04T08:06:00;17.10;;;11.20;;
82513;SDS011;72858;52.130;5.584;2023-12-04T08:08:25;14.43;;;10.70;;
82513;SDS011;72858;52.130;5.584;2023-12-04T08:10:50;12.85;;;10.05;;
82513;SDS011;72858;52.130;5.584;2023-12-04T08:13:16;13.52;;;10.38;;
82513;SDS011;72858;52.130;5.584;2023-12-04T08:15:41;13.93;;;10.98;;
82513;SDS011;72858;52.130;5.584;2023-12-04T08:18:06;13.55;;;10.43;;
82513;SDS011;72858;52.130;5.584;2023-12-04T08:20:31;15.27;;;11.00;;
82513;SDS011;72858;52.130;5.584;2023-12-04T08:22:57;14.40;;;10.45;;
82513;SDS011;72858;52.130;5.584;2023-12-04T08:25:23;12.70;;;10.68;;
82513;SDS011;72858;52.130;5.584;2023-12-04T08:27:48;14.48;;;10.40;;
82513;SDS011;72858;52.130;5.584;2023-12-04T08:30:14;11.60;;;9.63;;
82513;SDS011;72858;52.130;5.584;2023-12-04T08:32:41;14.27;;;10.63;;
82513;SDS011;72858;52.130;5.584;2023-12-04T08:35:06;15.15;;;10.65;;
82513;SDS011;72858;52.130;5.584;2023-12-04T08:37:31;14.35;;;10.23;;
82513;SDS011;72858;52.130;5.584;2023-12-04T08:39:57;13.32;;;10.63;;
82513;SDS011;72858;52.130;5.584;2023-12-04T08:42:22;13.43;;;10.60;;
82513;SDS011;72858;52.130;5.584;2023-12-04T08:44:47;14.00;;;10.30;;
82513;SDS011;72858;52.130;5.584;2023-12-04T08:47:12;14.70;;;11.43;;
82513;SDS011;72858;52.130;5.584;2023-12-04T08:49:38;23.63;;;10.98;;
82513;SDS011;72858;52.130;5.584;2023-12-04T08:52:05;14.55;;;10.43;;
82513;SDS011;72858;52.130;5.584;2023-12-04T08:54:31;14.90;;;11.13;;
82513;SDS011;72858;52.130;5.584;2023-12-04T08:56:56;12.67;;;9.83;;
82513;SDS011;72858;52.130;5.584;2023-12-04T08:59:21;13.83;;;10.57;;
82513;SDS011;72858;52.130;5.584;2023-12-04T09:01:46;14.23;;;9.77;;
82513;SDS011;72858;52.130;5.584;2023-12-04T09:04:11;11.63;;;9.90;;
82513;SDS011;72858;52.130;5.584;2023-12-04T09:06:37;13.75;;;10.40;;
82513;SDS011;72858;52.130;5.584;2023-12-04T09:09:03;13.45;;;10.70;;
82513;SDS011;72858;52.130;5.584;2023-12-04T09:11:28;12.97;;;10.03;;
82513;SDS011;72858;52.130;5.584;2023-12-04T09:13:53;12.85;;;10.15;;
82513;SDS011;72858;52.130;5.584;2023-12-04T09:16:19;13.13;;;9.93;;
82513;SDS011;72858;52.130;5.584;2023-12-04T09:18:44;12.33;;;9.50;;
82513;SDS011;72858;52.130;5.584;2023-12-04T09:21:09;11.88;;;9.30;;
82513;SDS011;72858;52.130;5.584;2023-12-04T09:23:35;14.37;;;9.13;;
82513;SDS011;72858;52.130;5.584;2023-12-04T09:26:00;13.52;;;9.43;;
82513;SDS011;72858;52.130;5.584;2023-12-04T09:28:25;12.98;;;9.02;;
82513;SDS011;72858;52.130;5.584;2023-12-04T09:30:50;14.93;;;10.00;;
82513;SDS011;72858;52.130;5.584;2023-12-04T09:33:16;11.27;;;9.23;;
82513;SDS011;72858;52.130;5.584;2023-12-04T09:35:41;12.77;;;9.63;;
82513;SDS011;72858;52.130;5.584;2023-12-04T09:38:07;11.93;;;9.30;;
82513;SDS011;72858;52.130;5.584;2023-12-04T09:40:32;10.75;;;9.27;;
82513;SDS011;72858;52.130;5.584;2023-12-04T09:42:57;11.83;;;9.17;;
82513;SDS011;72858;52.130;5.584;2023-12-04T09:45:23;12.73;;;9.20;;
82513;SDS011;72858;52.130;5.584;2023-12-04T09:47:49;13.02;;;9.43;;
82513;SDS011;72858;52.130;5.584;2023-12-04T09:50:14;11.73;;;8.73;;
82513;SDS011;72858;52.130;5.584;2023-12-04T09:52:40;10.30;;;9.20;;
82513;SDS011;72858;52.130;5.584;2023-12-04T09:55:05;11.80;;;9.00;;
82513;SDS011;72858;52.130;5.584;2023-12-04T09:57:30;10.27;;;8.50;;
82513;SDS011;72858;52.130;5.584;2023-12-04T09:59:59;11.55;;;8.93;;
82513;SDS011;72858;52.130;5.584;2023-12-04T10:02:25;9.48;;;8.10;;
82513;SDS011;72858;52.130;5.584;2023-12-04T10:04:50;10.45;;;8.52;;
82513;SDS011;72858;52.130;5.584;2023-12-04T10:07:17;10.05;;;7.97;;
82513;SDS011;72858;52.130;5.584;2023-12-04T10:09:42;8.98;;;7.88;;
82513;SDS011;72858;52.130;5.584;2023-12-04T10:12:07;11.63;;;8.27;;
82513;SDS011;72858;52.130;5.584;2023-12-04T10:14:32;10.23;;;7.35;;
82513;SDS011;72858;52.130;5.584;2023-12-04T10:16:57;11.20;;;8.17;;
82513;SDS011;72858;52.130;5.584;2023-12-04T10:19:24;10.38;;;7.45;;
82513;SDS011;72858;52.130;5.584;2023-12-04T10:21:51;11.38;;;8.07;;
82513;SDS011;72858;52.130;5.584;2023-12-04T10:26:53;9.27;;;7.70;;
82513;SDS011;72858;52.130;5.584;2023-12-04T10:29:19;8.60;;;7.70;;
82513;SDS011;72858;52.130;5.584;2023-12-04T10:31:44;10.52;;;7.78;;
82513;SDS011;72858;52.130;5.584;2023-12-04T10:34:09;8.95;;;7.63;;
82513;SDS011;72858;52.130;5.584;2023-12-04T10:36:35;10.43;;;7.95;;
82513;SDS011;72858;52.130;5.584;2023-12-04T10:39:00;10.35;;;8.32;;
82513;SDS011;72858;52.130;5.584;2023-12-04T10:41:26;10.35;;;8.45;;
82513;SDS011;72858;52.130;5.584;2023-12-04T10:43:51;9.57;;;8.50;;
82513;SDS011;72858;52.130;5.584;2023-12-04T10:46:17;10.23;;;8.73;;
82513;SDS011;72858;52.130;5.584;2023-12-04T10:48:44;12.18;;;9.25;;
82513;SDS011;72858;52.130;5.584;2023-12-04T10:51:09;11.40;;;9.27;;
82513;SDS011;72858;52.130;5.584;2023-12-04T10:53:35;14.27;;;9.40;;
82513;SDS011;72858;52.130;5.584;2023-12-04T10:56:00;11.37;;;9.00;;
82513;SDS011;72858;52.130;5.584;2023-12-04T10:58:27;13.73;;;10.50;;
82513;SDS011;72858;52.130;5.584;2023-12-04T11:00:52;13.13;;;9.90;;
82513;SDS011;72858;52.130;5.584;2023-12-04T11:03:28;13.80;;;10.27;;
82513;SDS011;72858;52.130;5.584;2023-12-04T11:05:59;12.90;;;10.00;;
82513;SDS011;72858;52.130;5.584;2023-12-04T11:08:24;12.35;;;9.88;;
82513;SDS011;72858;52.130;5.584;2023-12-04T11:13:23;13.43;;;10.27;;
82513;SDS011;72858;52.130;5.584;2023-12-04T11:15:52;14.57;;;10.35;;
82513;SDS011;72858;52.130;5.584;2023-12-04T11:18:19;12.52;;;10.27;;
82513;SDS011;72858;52.130;5.584;2023-12-04T11:20:51;14.70;;;10.55;;
82513;SDS011;72858;52.130;5.584;2023-12-04T11:23:17;14.27;;;9.80;;
82513;SDS011;72858;52.130;5.584;2023-12-04T11:25:42;16.48;;;11.35;;
82513;SDS011;72858;52.130;5.584;2023-12-04T11:28:08;14.68;;;10.85;;
82513;SDS011;72858;52.130;5.584;2023-12-04T11:30:34;14.93;;;11.05;;
82513;SDS011;72858;52.130;5.584;2023-12-04T11:33:00;16.52;;;11.50;;
82513;SDS011;72858;52.130;5.584;2023-12-04T11:35:25;14.93;;;11.32;;
82513;SDS011;72858;52.130;5.584;2023-12-04T11:37:51;13.88;;;10.82;;
82513;SDS011;72858;52.130;5.584;2023-12-04T11:40:17;15.45;;;11.57;;
82513;SDS011;72858;52.130;5.584;2023-12-04T11:42:42;14.75;;;11.05;;
82513;SDS011;72858;52.130;5.584;2023-12-04T11:45:07;15.23;;;11.95;;
82513;SDS011;72858;52.130;5.584;2023-12-04T11:47:51;15.63;;;11.27;;
82513;SDS011;72858;52.130;5.584;2023-12-04T11:50:20;15.35;;;11.55;;
82513;SDS011;72858;52.130;5.584;2023-12-04T11:52:46;15.93;;;11.60;;
82513;SDS011;72858;52.130;5.584;2023-12-04T11:55:11;15.23;;;12.02;;
82513;SDS011;72858;52.130;5.584;2023-12-04T11:57:37;13.75;;;10.88;;
82513;SDS011;72858;52.130;5.584;2023-12-04T12:00:09;16.58;;;12.25;;
82513;SDS011;72858;52.130;5.584;2023-12-04T12:02:37;17.98;;;12.45;;
82513;SDS011;72858;52.130;5.584;2023-12-04T12:05:03;16.83;;;11.90;;
82513;SDS011;72858;52.130;5.584;2023-12-04T12:07:28;15.75;;;12.00;;
82513;SDS011;72858;52.130;5.584;2023-12-04T12:09:54;16.65;;;11.95;;
82513;SDS011;72858;52.130;5.584;2023-12-04T12:12:20;16.58;;;11.27;;
82513;SDS011;72858;52.130;5.584;2023-12-04T12:14:45;14.85;;;11.73;;
82513;SDS011;72858;52.130;5.584;2023-12-04T12:17:10;19.00;;;11.73;;
82513;SDS011;72858;52.130;5.584;2023-12-04T12:19:35;17.00;;;12.45;;
82513;SDS011;72858;52.130;5.584;2023-12-04T12:22:00;14.53;;;11.87;;
82513;SDS011;72858;52.130;5.584;2023-12-04T12:24:26;16.48;;;12.18;;
82513;SDS011;72858;52.130;5.584;2023-12-04T12:26:51;18.38;;;12.60;;
82513;SDS011;72858;52.130;5.584;2023-12-04T12:29:17;17.85;;;11.85;;
82513;SDS011;72858;52.130;5.584;2023-12-04T12:31:42;16.25;;;12.68;;
82513;SDS011;72858;52.130;5.584;2023-12-04T12:34:07;15.03;;;11.83;;
82513;SDS011;72858;52.130;5.584;2023-12-04T12:36:32;17.83;;;11.85;;
82513;SDS011;72858;52.130;5.584;2023-12-04T12:38:59;15.77;;;12.25;;
82513;SDS011;72858;52.130;5.584;2023-12-04T12:41:25;17.48;;;12.65;;
82513;SDS011;72858;52.130;5.584;2023-12-04T12:43:51;18.42;;;11.70;;
82513;SDS011;72858;52.130;5.584;2023-12-04T12:46:17;15.43;;;11.73;;
82513;SDS011;72858;52.130;5.584;2023-12-04T12:48:42;18.10;;;12.23;;
82513;SDS011;72858;52.130;5.584;2023-12-04T12:51:08;15.43;;;11.55;;
82513;SDS011;72858;52.130;5.584;2023-12-04T12:53:36;17.95;;;11.65;;
82513;SDS011;72858;52.130;5.584;2023-12-04T12:56:01;16.45;;;12.50;;
82513;SDS011;72858;52.130;5.584;2023-12-04T12:58:27;20.33;;;12.20;;
82513;SDS011;72858;52.130;5.584;2023-12-04T13:00:52;14.43;;;11.57;;
82513;SDS011;72858;52.130;5.584;2023-12-04T13:03:17;14.73;;;10.88;;
82513;SDS011;72858;52.130;5.584;2023-12-04T13:05:43;15.88;;;10.80;;
82513;SDS011;72858;52.130;5.584;2023-12-04T13:08:08;20.58;;;12.20;;
82513;SDS011;72858;52.130;5.584;2023-12-04T13:10:34;16.73;;;12.18;;
82513;SDS011;72858;52.130;5.584;2023-12-04T13:12:59;15.57;;;11.50;;
82513;SDS011;72858;52.130;5.584;2023-12-04T13:15:25;15.45;;;11.52;;
82513;SDS011;72858;52.130;5.584;2023-12-04T13:17:50;18.77;;;12.55;;
82513;SDS011;72858;52.130;5.584;2023-12-04T13:20:15;13.75;;;11.32;;
82513;SDS011;72858;52.130;5.584;2023-12-04T13:22:41;15.38;;;10.98;;
82513;SDS011;72858;52.130;5.584;2023-12-04T13:25:07;15.57;;;11.73;;
82513;SDS011;72858;52.130;5.584;2023-12-04T13:27:34;15.07;;;11.27;;
82513;SDS011;72858;52.130;5.584;2023-12-04T13:30:01;16.67;;;11.43;;
82513;SDS011;72858;52.130;5.584;2023-12-04T13:32:26;15.68;;;11.70;;
82513;SDS011;72858;52.130;5.584;2023-12-04T13:34:52;16.45;;;11.77;;
82513;SDS011;72858;52.130;5.584;2023-12-04T13:37:19;18.02;;;12.20;;
82513;SDS011;72858;52.130;5.584;2023-12-04T13:39:44;14.20;;;11.10;;
82513;SDS011;72858;52.130;5.584;2023-12-04T13:42:15;15.13;;;12.10;;
82513;SDS011;72858;52.130;5.584;2023-12-04T13:44:59;14.07;;;11.40;;
82513;SDS011;72858;52.130;5.584;2023-12-04T13:47:25;15.95;;;12.27;;
82513;SDS011;72858;52.130;5.584;2023-12-04T13:49:50;16.88;;;11.02;;
82513;SDS011;72858;52.130;5.584;2023-12-04T13:52:15;19.63;;;12.17;;
82513;SDS011;72858;52.130;5.584;2023-12-04T13:54:40;19.38;;;12.50;;
82513;SDS011;72858;52.130;5.584;2023-12-04T13:57:12;16.80;;;12.50;;
82513;SDS011;72858;52.130;5.584;2023-12-04T13:59:45;17.20;;;12.18;;
82513;SDS011;72858;52.130;5.584;2023-12-04T14:02:11;14.30;;;11.77;;
82513;SDS011;72858;52.130;5.584;2023-12-04T14:04:37;15.73;;;10.98;;
82513;SDS011;72858;52.130;5.584;2023-12-04T14:07:03;15.13;;;11.65;;
82513;SDS011;72858;52.130;5.584;2023-12-04T14:09:29;15.40;;;11.77;;
82513;SDS011;72858;52.130;5.584;2023-12-04T14:11:54;16.40;;;11.37;;
82513;SDS011;72858;52.130;5.584;2023-12-04T14:14:19;13.82;;;10.98;;
82513;SDS011;72858;52.130;5.584;2023-12-04T14:16:44;15.23;;;12.35;;
82513;SDS011;72858;52.130;5.584;2023-12-04T14:19:12;14.93;;;11.68;;